LFKF/FSC METAR and TAF weather

Enter ICAO airport designator
Station Type Date Time Source
LFKF METAR 2019/05/27 09:00 UTC NOAA

LFKF 270900Z AUTO 06005KT 020V120 9999 BKN024 OVC029 18/15 Q1005 TEMPO RA


Station Type Date Time Source
LFKF Decoded METAR 2019/05/27 09:00 UTC NOAA

Figari, France (LFKF) 41-30N 009-06E 23M
May 27, 2019 - 05:00 AM EDT / 2019.05.27 0900 UTC
Wind: from the ENE (060 degrees) at 6 MPH (5 KT) (direction variable):0
Visibility: greater than 7 mile(s):0
Sky conditions: overcast
Temperature: 64 F (18 C)
Dew Point: 59 F (15 C)
Relative Humidity: 82%
Pressure (altimeter): 29.68 in. Hg (1005 hPa)
ob: LFKF 270900Z AUTO 06005KT 020V120 9999 BKN024 OVC029 18/15 Q1005 TEMPO RA
cycle: 9

Station Type Date Time Source
LFKF TAF 2019/05/27 09:42 UTC NOAA

TAF TAF LFKF 270800Z 2709/2809 04008KT 9999 BKN025 OVC033
TEMPO 2709/2721 RA BKN015
BECMG 2715/2718 24006KT

Example: see airport list